SFO weather

Public forecast

Using degrees Fahrenheit for public forecast. Weather courtesy of forecast.io.

Current aviation weather report (METAR) for San Francisco International Airport

Retrieved 2020/08/13 07:56 UTC (41 minutes ago):

KSFO 130756Z 31006KT 10SM FEW004 14/11 A2991 RMK AO2 SLP127 T01390111 402170133

Aviation forecast (TAF) for San Francisco International Airport

Retrieved 2020/08/13 06:42 UTC (2 hours ago):

TAF KSFO 130539Z 1306/1412 30010KT P6SM FEW004 FM130800 29006KT P6SM FEW006 FM131600 03005KT P6SM FEW008 FM132200 29018KT P6SM FEW150 SCT200 FM140400 30012KT P6SM FEW100 SCT150 FM140700 30007KT P6SM FEW100 SCT150